createdAt,value
2022-09-01T00:03:03.147Z,9.88
2022-09-01T00:08:05.638Z,9.89
2022-09-01T00:13:08.438Z,9.89
2022-09-01T00:18:10.312Z,9.89
2022-09-01T00:23:12.398Z,9.86
2022-09-01T00:28:14.283Z,9.85
2022-09-01T00:33:16.253Z,9.84
2022-09-01T00:38:18.343Z,9.84
2022-09-01T00:43:36.287Z,9.88
2022-09-01T00:48:38.984Z,9.95
2022-09-01T00:53:43.533Z,10.04
2022-09-01T00:58:46.016Z,10.11
2022-09-01T01:03:47.994Z,10.12
2022-09-01T01:08:57.552Z,10.13
2022-09-01T01:14:11.726Z,10.20
2022-09-01T01:19:40.318Z,10.35
2022-09-01T01:24:43.425Z,10.52
2022-09-01T01:29:47.351Z,10.65
2022-09-01T01:34:49.637Z,10.83
2022-09-01T01:39:51.922Z,10.96
2022-09-01T01:44:54.312Z,11.03
2022-09-01T01:49:57.480Z,11.15
2022-09-01T01:55:03.260Z,11.23
2022-09-01T02:00:10.815Z,11.30
2022-09-01T02:05:12.780Z,11.34
2022-09-01T02:10:15.061Z,11.35
2022-09-01T02:15:17.145Z,11.34
2022-09-01T02:20:19.739Z,11.33
2022-09-01T02:25:23.049Z,11.35
2022-09-01T02:30:27.533Z,11.40
2022-09-01T02:35:31.514Z,11.48
2022-09-01T02:40:34.769Z,11.57
2022-09-01T02:45:37.234Z,11.70
2022-09-01T02:50:41.445Z,11.80
2022-09-01T02:55:43.629Z,11.85
2022-09-01T03:00:52.216Z,11.86
2022-09-01T03:05:56.909Z,11.88
2022-09-01T03:11:02.883Z,11.92
2022-09-01T03:16:07.152Z,11.95
2022-09-01T03:21:14.721Z,11.98
2022-09-01T03:26:20.536Z,11.97
2022-09-01T03:31:27.011Z,11.91
2022-09-01T03:36:30.433Z,11.85
2022-09-01T03:41:32.574Z,11.83
2022-09-01T03:46:37.120Z,11.82
2022-09-01T03:51:40.116Z,11.84
2022-09-01T03:56:43.528Z,11.84
2022-09-01T04:01:46.547Z,11.84
2022-09-01T04:06:48.923Z,11.87
2022-09-01T04:11:52.743Z,11.87
2022-09-01T04:17:13.260Z,11.92
2022-09-01T04:22:17.288Z,11.98
2022-09-01T04:27:21.211Z,12.04
2022-09-01T04:32:24.009Z,12.09
2022-09-01T04:37:28.140Z,12.14
2022-09-01T04:42:32.004Z,12.20
2022-09-01T04:47:36.198Z,12.27
2022-09-01T04:52:39.918Z,12.37
2022-09-01T04:57:42.099Z,12.50
2022-09-01T05:02:45.717Z,12.60
2022-09-01T05:07:52.507Z,12.65
2022-09-01T05:12:54.489Z,12.67
2022-09-01T05:17:59.491Z,12.67
2022-09-01T05:23:02.031Z,12.65
2022-09-01T05:28:04.158Z,12.69
2022-09-01T05:33:11.215Z,12.77
2022-09-01T05:38:14.010Z,12.93
2022-09-01T05:43:17.013Z,13.25
2022-09-01T05:48:23.410Z,13.75
2022-09-01T05:53:30.803Z,14.73
2022-09-01T06:04:05.381Z,19.42
2022-09-01T06:09:08.894Z,20.24
2022-09-01T06:14:11.692Z,19.82
2022-09-01T06:19:14.399Z,19.16
2022-09-01T06:24:17.699Z,18.55
2022-09-01T06:29:20.813Z,17.93
2022-09-01T06:34:22.792Z,17.42
2022-09-01T06:39:26.211Z,17.02
2022-09-01T06:44:31.859Z,17.02
2022-09-01T06:49:34.730Z,18.59
2022-09-01T06:54:39.213Z,19.79
2022-09-01T06:59:42.296Z,22.64
2022-09-01T07:04:45.617Z,26.16
2022-09-01T07:10:05.663Z,29.59
2022-09-01T07:21:02.600Z,34.10
2022-09-01T07:26:07.885Z,35.95
2022-09-01T07:53:00.280Z,35.82
2022-09-01T07:58:02.257Z,36.21
2022-09-01T08:03:04.406Z,37.63
2022-09-01T08:08:18.622Z,38.82
2022-09-01T08:13:22.345Z,39.64
2022-09-01T08:18:24.585Z,40.10
2022-09-01T08:23:27.005Z,39.90
2022-09-01T08:28:29.366Z,38.22
2022-09-01T08:33:34.753Z,34.43
2022-09-01T08:38:37.292Z,30.35
2022-09-01T08:43:57.319Z,26.92
2022-09-01T08:49:24.753Z,24.38
2022-09-01T08:54:34.280Z,23.24
2022-09-01T08:59:36.808Z,26.78
2022-09-01T09:05:23.179Z,31.44
2022-09-01T09:10:51.897Z,35.18
2022-09-01T09:16:08.179Z,37.38
2022-09-01T09:21:29.983Z,38.88
2022-09-01T09:26:47.829Z,36.43
2022-09-01T09:32:22.618Z,33.54
2022-09-01T09:37:30.581Z,31.26
2022-09-01T09:42:36.362Z,33.06
2022-09-01T09:47:45.266Z,32.23
2022-09-01T09:52:49.168Z,32.49
2022-09-01T09:57:55.384Z,32.11
2022-09-01T10:03:10.203Z,29.35
2022-09-01T10:08:39.489Z,27.28
2022-09-01T10:13:41.469Z,25.76
2022-09-01T10:18:44.880Z,24.87
2022-09-01T10:23:46.862Z,24.29
2022-09-01T10:28:50.813Z,24.06
2022-09-01T10:33:53.585Z,23.87
2022-09-01T10:39:04.412Z,23.59
2022-09-01T10:44:19.313Z,23.03
2022-09-01T10:49:46.913Z,22.84
2022-09-01T10:54:56.388Z,22.83
2022-09-01T11:00:39.364Z,23.03
2022-09-01T11:06:10.964Z,23.37
2022-09-01T11:11:35.516Z,23.35
2022-09-01T11:16:46.721Z,22.93
2022-09-01T11:22:07.835Z,22.28
2022-09-01T11:27:32.035Z,21.62
2022-09-01T11:32:37.291Z,21.40
2022-09-01T11:37:40.800Z,21.48
2022-09-01T11:42:46.754Z,21.73
2022-09-01T11:47:54.130Z,21.73
2022-09-01T11:53:28.423Z,21.28
2022-09-01T11:58:38.797Z,21.48
2022-09-01T12:03:41.061Z,21.66
2022-09-01T12:08:51.254Z,21.47
2022-09-01T12:14:11.890Z,20.94
2022-09-01T12:19:27.344Z,20.48
2022-09-01T12:24:34.484Z,20.24
2022-09-01T12:29:37.676Z,20.26
2022-09-01T12:34:41.397Z,20.45
2022-09-01T12:39:47.595Z,20.82
2022-09-01T12:44:53.957Z,21.18
2022-09-01T12:49:56.660Z,21.37
2022-09-01T12:54:58.738Z,21.25
2022-09-01T13:00:20.791Z,21.14
2022-09-01T13:05:29.934Z,21.09
2022-09-01T13:10:45.022Z,20.98
2022-09-01T13:15:52.688Z,20.92
2022-09-01T13:20:56.361Z,21.03
2022-09-01T13:26:01.918Z,21.01
2022-09-01T13:36:45.339Z,20.15
2022-09-01T13:41:49.460Z,20.02
2022-09-01T13:46:59.338Z,19.76
2022-09-01T13:52:02.151Z,19.66
2022-09-01T13:57:04.481Z,19.61
2022-09-01T14:02:07.697Z,19.62
2022-09-01T14:07:10.083Z,19.62
2022-09-01T14:12:12.162Z,19.51
2022-09-01T14:17:15.679Z,19.38
2022-09-01T14:22:18.384Z,19.27
2022-09-01T14:27:20.566Z,19.09
2022-09-01T14:32:26.633Z,18.93
2022-09-01T14:37:29.645Z,18.79
2022-09-01T14:42:32.145Z,18.52
2022-09-01T14:47:34.109Z,18.34
2022-09-01T14:52:38.697Z,18.38
2022-09-01T14:57:40.855Z,18.52
2022-09-01T15:02:44.453Z,18.59
2022-09-01T15:07:47.054Z,18.59
2022-09-01T15:12:49.541Z,18.54
2022-09-01T15:17:52.442Z,18.52
2022-09-01T15:22:56.468Z,18.52
2022-09-01T15:27:58.655Z,18.51
2022-09-01T15:33:01.147Z,18.50
2022-09-01T15:38:04.783Z,18.45
2022-09-01T15:43:08.093Z,18.36
2022-09-01T15:48:10.062Z,18.24
2022-09-01T15:53:12.899Z,18.10
2022-09-01T15:58:17.396Z,17.90
2022-09-01T16:03:20.574Z,17.68
2022-09-01T16:08:23.093Z,17.51
2022-09-01T16:13:25.585Z,17.37
2022-09-01T16:18:37.213Z,17.25
2022-09-01T16:23:43.993Z,17.13
2022-09-01T16:28:53.541Z,17.02
2022-09-01T16:34:01.573Z,16.90
2022-09-01T16:39:39.685Z,16.78
2022-09-01T16:44:50.579Z,16.64
2022-09-01T16:50:08.918Z,16.47
2022-09-01T16:55:29.254Z,16.30
2022-09-01T17:00:56.429Z,16.11
2022-09-01T17:06:13.642Z,15.89
2022-09-01T17:11:20.369Z,15.65
2022-09-01T17:16:41.884Z,15.43
2022-09-01T17:22:05.194Z,15.22
2022-09-01T17:27:25.181Z,14.99
2022-09-01T17:33:18.430Z,14.77
2022-09-01T17:38:30.372Z,14.51
2022-09-01T17:43:46.073Z,14.28
2022-09-01T17:48:49.074Z,14.03
2022-09-01T17:54:31.595Z,13.79
2022-09-01T18:00:07.373Z,13.55
2022-09-01T18:05:24.513Z,13.35
2022-09-01T18:10:39.029Z,13.15
2022-09-01T18:15:58.425Z,12.96
2022-09-01T18:21:37.614Z,12.79
2022-09-01T18:26:43.598Z,12.61
2022-09-01T18:32:07.897Z,12.44
2022-09-01T18:37:19.218Z,12.26
2022-09-01T18:42:31.599Z,12.13
2022-09-01T18:47:43.944Z,12.01
2022-09-01T18:53:16.095Z,11.90
2022-09-01T18:58:50.701Z,11.78
2022-09-01T19:04:14.378Z,11.70
2022-09-01T19:09:31.101Z,11.66
2022-09-01T19:14:49.598Z,11.62
2022-09-01T19:20:27.239Z,11.56
2022-09-01T19:25:39.260Z,11.48
2022-09-01T19:31:12.521Z,11.39
2022-09-01T19:36:35.057Z,11.29
2022-09-01T19:41:49.648Z,11.19
2022-09-01T19:47:01.904Z,11.09
2022-09-01T19:52:32.186Z,11.01
2022-09-01T19:58:03.905Z,10.95
2022-09-01T20:03:14.270Z,10.94
2022-09-01T20:08:20.793Z,10.97
2022-09-01T20:13:30.108Z,11.05
2022-09-01T20:18:41.441Z,11.10
2022-09-01T20:23:58.167Z,11.14
2022-09-01T20:29:12.173Z,11.16
2022-09-01T20:34:21.123Z,11.12
2022-09-01T20:40:01.928Z,11.07
2022-09-01T20:45:23.190Z,10.99
2022-09-01T20:50:34.846Z,10.92
2022-09-01T20:55:56.477Z,10.84
2022-09-01T21:01:20.295Z,10.76
2022-09-01T21:06:54.201Z,10.68
2022-09-01T21:12:26.597Z,10.59
2022-09-01T21:18:00.111Z,10.48
2022-09-01T21:23:02.101Z,10.36
2022-09-01T21:28:08.701Z,10.25
2022-09-01T21:33:10.514Z,10.14
2022-09-01T21:38:12.532Z,10.05
2022-09-01T21:43:19.184Z,9.96
2022-09-01T21:48:21.100Z,9.89
2022-09-01T21:53:23.180Z,9.83
2022-09-01T21:58:25.162Z,9.76
2022-09-01T22:03:27.038Z,9.68
2022-09-01T22:08:29.964Z,9.62
2022-09-01T22:13:31.817Z,9.54
2022-09-01T22:18:34.407Z,9.46
2022-09-01T22:23:37.925Z,9.39
2022-09-01T22:28:39.697Z,9.30
2022-09-01T22:33:41.984Z,9.24
2022-09-01T22:38:43.760Z,9.16
2022-09-01T22:43:46.148Z,9.10
2022-09-01T22:48:48.949Z,9.04
2022-09-01T22:53:51.133Z,8.99
2022-09-01T22:58:55.875Z,8.93
2022-09-01T23:04:00.212Z,8.88
2022-09-01T23:09:03.424Z,8.84
2022-09-01T23:14:05.708Z,8.80
2022-09-01T23:19:07.991Z,8.74
2022-09-01T23:24:10.379Z,8.71
2022-09-01T23:29:12.167Z,8.67
2022-09-01T23:34:14.033Z,8.64
2022-09-01T23:39:16.011Z,8.59
2022-09-01T23:44:17.888Z,8.54
2022-09-01T23:49:20.071Z,8.50
2022-09-01T23:54:22.358Z,8.51
2022-09-01T23:59:27.336Z,8.52
